sensor_id;sensor_type;location;lat;lon;timestamp;temperature;humidity
16412;DHT22;8315;52.104;6.304;2023-02-01T00:00:18;5.60;98.40
16412;DHT22;8315;52.104;6.304;2023-02-01T00:02:45;5.70;98.40
16412;DHT22;8315;52.104;6.304;2023-02-01T00:05:12;5.70;98.40
16412;DHT22;8315;52.104;6.304;2023-02-01T00:07:40;5.70;98.40
16412;DHT22;8315;52.104;6.304;2023-02-01T00:10:07;5.70;98.40
16412;DHT22;8315;52.104;6.304;2023-02-01T00:12:34;5.70;98.40
16412;DHT22;8315;52.104;6.304;2023-02-01T00:15:01;5.70;98.40
16412;DHT22;8315;52.104;6.304;2023-02-01T00:17:30;5.60;98.40
16412;DHT22;8315;52.104;6.304;2023-02-01T00:19:57;5.60;98.40
16412;DHT22;8315;52.104;6.304;2023-02-01T00:22:24;5.60;98.40
16412;DHT22;8315;52.104;6.304;2023-02-01T00:24:51;5.60;98.40
16412;DHT22;8315;52.104;6.304;2023-02-01T00:27:18;5.50;98.40
16412;DHT22;8315;52.104;6.304;2023-02-01T00:29:46;5.50;98.40
16412;DHT22;8315;52.104;6.304;2023-02-01T00:32:13;5.40;98.40
16412;DHT22;8315;52.104;6.304;2023-02-01T00:34:41;5.50;98.40
16412;DHT22;8315;52.104;6.304;2023-02-01T00:37:08;5.50;98.40
16412;DHT22;8315;52.104;6.304;2023-02-01T00:39:35;5.50;98.40
16412;DHT22;8315;52.104;6.304;2023-02-01T00:42:01;5.60;98.40
16412;DHT22;8315;52.104;6.304;2023-02-01T00:44:29;5.60;98.40
16412;DHT22;8315;52.104;6.304;2023-02-01T00:47:00;5.70;98.40
16412;DHT22;8315;52.104;6.304;2023-02-01T00:49:28;5.70;98.40
16412;DHT22;8315;52.104;6.304;2023-02-01T00:51:57;5.80;98.40
16412;DHT22;8315;52.104;6.304;2023-02-01T00:54:23;5.80;98.40
16412;DHT22;8315;52.104;6.304;2023-02-01T00:56:50;5.80;98.40
16412;DHT22;8315;52.104;6.304;2023-02-01T00:59:18;5.90;98.40
16412;DHT22;8315;52.104;6.304;2023-02-01T01:01:45;5.90;98.40
16412;DHT22;8315;52.104;6.304;2023-02-01T01:04:11;5.90;98.40
16412;DHT22;8315;52.104;6.304;2023-02-01T01:06:38;6.00;98.40
16412;DHT22;8315;52.104;6.304;2023-02-01T01:09:07;6.00;98.40
16412;DHT22;8315;52.104;6.304;2023-02-01T01:11:35;6.00;98.40
16412;DHT22;8315;52.104;6.304;2023-02-01T01:14:05;6.00;98.40
16412;DHT22;8315;52.104;6.304;2023-02-01T01:16:34;6.00;98.40
16412;DHT22;8315;52.104;6.304;2023-02-01T01:19:01;6.00;98.40
16412;DHT22;8315;52.104;6.304;2023-02-01T01:21:29;6.00;98.40
16412;DHT22;8315;52.104;6.304;2023-02-01T01:23:56;6.00;98.40
16412;DHT22;8315;52.104;6.304;2023-02-01T01:26:26;6.00;98.40
16412;DHT22;8315;52.104;6.304;2023-02-01T01:28:54;6.00;98.40
16412;DHT22;8315;52.104;6.304;2023-02-01T01:31:21;6.00;98.40
16412;DHT22;8315;52.104;6.304;2023-02-01T01:33:49;6.00;98.40
16412;DHT22;8315;52.104;6.304;2023-02-01T01:36:16;6.00;98.40
16412;DHT22;8315;52.104;6.304;2023-02-01T01:38:43;5.90;98.40
16412;DHT22;8315;52.104;6.304;2023-02-01T01:41:12;6.00;98.40
16412;DHT22;8315;52.104;6.304;2023-02-01T01:43:53;6.00;98.40
16412;DHT22;8315;52.104;6.304;2023-02-01T01:46:23;6.00;98.40
16412;DHT22;8315;52.104;6.304;2023-02-01T01:48:53;6.00;98.40
16412;DHT22;8315;52.104;6.304;2023-02-01T01:51:24;5.90;98.40
16412;DHT22;8315;52.104;6.304;2023-02-01T01:53:53;5.90;98.40
16412;DHT22;8315;52.104;6.304;2023-02-01T01:56:25;5.90;98.40
16412;DHT22;8315;52.104;6.304;2023-02-01T01:58:55;5.90;98.40
16412;DHT22;8315;52.104;6.304;2023-02-01T02:01:22;5.90;98.40
16412;DHT22;8315;52.104;6.304;2023-02-01T02:03:49;5.90;98.40
16412;DHT22;8315;52.104;6.304;2023-02-01T02:06:17;5.80;98.40
16412;DHT22;8315;52.104;6.304;2023-02-01T02:08:49;5.80;98.40
16412;DHT22;8315;52.104;6.304;2023-02-01T02:11:16;5.80;98.40
16412;DHT22;8315;52.104;6.304;2023-02-01T02:13:44;5.80;98.40
16412;DHT22;8315;52.104;6.304;2023-02-01T02:16:21;5.80;98.40
16412;DHT22;8315;52.104;6.304;2023-02-01T02:18:57;5.80;98.40
16412;DHT22;8315;52.104;6.304;2023-02-01T02:21:35;5.80;98.40
16412;DHT22;8315;52.104;6.304;2023-02-01T02:24:33;5.80;98.40
16412;DHT22;8315;52.104;6.304;2023-02-01T02:27:07;5.80;98.40
16412;DHT22;8315;52.104;6.304;2023-02-01T02:36:00;5.90;98.40
16412;DHT22;8315;52.104;6.304;2023-02-01T02:38:32;5.90;98.40
16412;DHT22;8315;52.104;6.304;2023-02-01T02:41:05;5.90;98.40
16412;DHT22;8315;52.104;6.304;2023-02-01T02:43:36;5.90;98.40
16412;DHT22;8315;52.104;6.304;2023-02-01T02:46:27;6.00;98.40
16412;DHT22;8315;52.104;6.304;2023-02-01T02:49:15;6.00;98.40
16412;DHT22;8315;52.104;6.304;2023-02-01T02:51:48;6.00;98.40
16412;DHT22;8315;52.104;6.304;2023-02-01T02:54:36;6.00;98.40
16412;DHT22;8315;52.104;6.304;2023-02-01T02:57:19;6.00;98.40
16412;DHT22;8315;52.104;6.304;2023-02-01T03:00:06;6.00;98.40
16412;DHT22;8315;52.104;6.304;2023-02-01T03:02:53;6.10;98.40
16412;DHT22;8315;52.104;6.304;2023-02-01T03:05:40;6.10;98.40
16412;DHT22;8315;52.104;6.304;2023-02-01T03:08:11;6.10;98.40
16412;DHT22;8315;52.104;6.304;2023-02-01T03:10:42;6.10;98.40
16412;DHT22;8315;52.104;6.304;2023-02-01T03:13:19;6.00;98.40
16412;DHT22;8315;52.104;6.304;2023-02-01T03:15:53;6.00;98.40
16412;DHT22;8315;52.104;6.304;2023-02-01T03:18:26;6.10;98.40
16412;DHT22;8315;52.104;6.304;2023-02-01T03:20:56;6.10;98.40
16412;DHT22;8315;52.104;6.304;2023-02-01T03:23:28;6.10;98.40
16412;DHT22;8315;52.104;6.304;2023-02-01T03:25:59;6.10;98.40
16412;DHT22;8315;52.104;6.304;2023-02-01T03:28:28;6.10;98.40
16412;DHT22;8315;52.104;6.304;2023-02-01T03:30:57;6.10;98.40
16412;DHT22;8315;52.104;6.304;2023-02-01T03:33:25;6.10;98.40
16412;DHT22;8315;52.104;6.304;2023-02-01T03:35:55;6.10;98.40
16412;DHT22;8315;52.104;6.304;2023-02-01T03:38:28;6.10;98.40
16412;DHT22;8315;52.104;6.304;2023-02-01T03:41:00;6.10;98.40
16412;DHT22;8315;52.104;6.304;2023-02-01T03:43:30;6.10;98.40
16412;DHT22;8315;52.104;6.304;2023-02-01T03:46:03;6.10;98.40
16412;DHT22;8315;52.104;6.304;2023-02-01T03:48:33;6.10;98.40
16412;DHT22;8315;52.104;6.304;2023-02-01T03:51:01;6.10;98.40
16412;DHT22;8315;52.104;6.304;2023-02-01T03:53:31;6.00;98.40
16412;DHT22;8315;52.104;6.304;2023-02-01T03:56:00;6.00;98.40
16412;DHT22;8315;52.104;6.304;2023-02-01T03:58:27;6.00;98.40
16412;DHT22;8315;52.104;6.304;2023-02-01T04:00:55;6.00;98.40
16412;DHT22;8315;52.104;6.304;2023-02-01T04:03:23;6.00;98.40
16412;DHT22;8315;52.104;6.304;2023-02-01T04:05:51;5.90;98.40
16412;DHT22;8315;52.104;6.304;2023-02-01T04:08:22;5.90;98.40
16412;DHT22;8315;52.104;6.304;2023-02-01T04:10:51;5.90;98.40
16412;DHT22;8315;52.104;6.304;2023-02-01T04:13:18;5.90;98.40
16412;DHT22;8315;52.104;6.304;2023-02-01T04:15:46;5.90;98.40
16412;DHT22;8315;52.104;6.304;2023-02-01T04:18:15;5.90;98.40
16412;DHT22;8315;52.104;6.304;2023-02-01T04:20:42;5.90;98.40
16412;DHT22;8315;52.104;6.304;2023-02-01T04:23:10;5.90;98.40
16412;DHT22;8315;52.104;6.304;2023-02-01T04:25:36;5.90;98.40
16412;DHT22;8315;52.104;6.304;2023-02-01T04:28:05;5.90;98.40
16412;DHT22;8315;52.104;6.304;2023-02-01T04:30:32;5.90;98.40
16412;DHT22;8315;52.104;6.304;2023-02-01T04:32:59;5.90;98.40
16412;DHT22;8315;52.104;6.304;2023-02-01T04:35:28;6.00;98.40
16412;DHT22;8315;52.104;6.304;2023-02-01T04:37:55;6.00;98.40
16412;DHT22;8315;52.104;6.304;2023-02-01T04:40:22;6.00;98.40
16412;DHT22;8315;52.104;6.304;2023-02-01T04:42:49;6.10;98.40
16412;DHT22;8315;52.104;6.304;2023-02-01T04:45:17;6.10;98.40
16412;DHT22;8315;52.104;6.304;2023-02-01T04:47:44;6.20;98.40
16412;DHT22;8315;52.104;6.304;2023-02-01T04:50:11;6.20;98.40
16412;DHT22;8315;52.104;6.304;2023-02-01T04:52:38;6.30;98.40
16412;DHT22;8315;52.104;6.304;2023-02-01T04:55:05;6.30;98.40
16412;DHT22;8315;52.104;6.304;2023-02-01T04:57:32;6.40;98.40
16412;DHT22;8315;52.104;6.304;2023-02-01T04:59:59;6.40;98.40
16412;DHT22;8315;52.104;6.304;2023-02-01T05:02:27;6.50;98.40
16412;DHT22;8315;52.104;6.304;2023-02-01T05:04:54;6.50;98.40
16412;DHT22;8315;52.104;6.304;2023-02-01T05:07:21;6.60;98.40
16412;DHT22;8315;52.104;6.304;2023-02-01T05:09:47;6.60;98.40
16412;DHT22;8315;52.104;6.304;2023-02-01T05:12:14;6.60;98.40
16412;DHT22;8315;52.104;6.304;2023-02-01T05:14:59;6.70;98.40
16412;DHT22;8315;52.104;6.304;2023-02-01T05:17:27;6.70;98.40
16412;DHT22;8315;52.104;6.304;2023-02-01T05:19:54;6.70;98.40
16412;DHT22;8315;52.104;6.304;2023-02-01T05:22:21;6.80;98.40
16412;DHT22;8315;52.104;6.304;2023-02-01T05:24:48;6.80;98.40
16412;DHT22;8315;52.104;6.304;2023-02-01T05:27:14;6.80;98.40
16412;DHT22;8315;52.104;6.304;2023-02-01T05:29:41;6.80;98.40
16412;DHT22;8315;52.104;6.304;2023-02-01T05:32:09;6.80;98.40
16412;DHT22;8315;52.104;6.304;2023-02-01T05:34:37;6.70;98.40
16412;DHT22;8315;52.104;6.304;2023-02-01T05:37:04;6.80;98.40
16412;DHT22;8315;52.104;6.304;2023-02-01T05:39:31;6.80;98.40
16412;DHT22;8315;52.104;6.304;2023-02-01T05:41:58;6.80;98.40
16412;DHT22;8315;52.104;6.304;2023-02-01T05:44:24;6.80;98.40
16412;DHT22;8315;52.104;6.304;2023-02-01T05:46:51;6.80;98.40
16412;DHT22;8315;52.104;6.304;2023-02-01T05:49:18;6.90;98.40
16412;DHT22;8315;52.104;6.304;2023-02-01T05:51:46;6.90;98.40
16412;DHT22;8315;52.104;6.304;2023-02-01T05:54:13;6.90;98.40
16412;DHT22;8315;52.104;6.304;2023-02-01T05:56:40;6.90;98.40
16412;DHT22;8315;52.104;6.304;2023-02-01T05:59:07;6.90;98.40
16412;DHT22;8315;52.104;6.304;2023-02-01T06:01:35;6.90;98.40
16412;DHT22;8315;52.104;6.304;2023-02-01T06:04:01;6.90;98.40
16412;DHT22;8315;52.104;6.304;2023-02-01T06:06:28;7.00;98.40
16412;DHT22;8315;52.104;6.304;2023-02-01T06:08:56;7.00;98.40
16412;DHT22;8315;52.104;6.304;2023-02-01T06:11:23;7.00;98.40
16412;DHT22;8315;52.104;6.304;2023-02-01T06:13:50;7.00;98.40
16412;DHT22;8315;52.104;6.304;2023-02-01T06:16:17;7.00;98.40
16412;DHT22;8315;52.104;6.304;2023-02-01T06:18:44;7.00;98.40
16412;DHT22;8315;52.104;6.304;2023-02-01T06:21:11;7.00;98.40
16412;DHT22;8315;52.104;6.304;2023-02-01T06:23:38;7.00;98.40
16412;DHT22;8315;52.104;6.304;2023-02-01T06:26:07;7.00;98.40
16412;DHT22;8315;52.104;6.304;2023-02-01T06:28:34;7.00;98.40
16412;DHT22;8315;52.104;6.304;2023-02-01T06:31:02;7.00;98.40
16412;DHT22;8315;52.104;6.304;2023-02-01T06:33:31;7.00;98.40
16412;DHT22;8315;52.104;6.304;2023-02-01T06:35:59;7.00;98.40
16412;DHT22;8315;52.104;6.304;2023-02-01T06:38:27;7.00;98.40
16412;DHT22;8315;52.104;6.304;2023-02-01T06:40:54;7.00;98.40
16412;DHT22;8315;52.104;6.304;2023-02-01T06:43:24;7.00;98.40
16412;DHT22;8315;52.104;6.304;2023-02-01T06:45:52;7.10;98.40
16412;DHT22;8315;52.104;6.304;2023-02-01T06:48:19;7.00;98.40
16412;DHT22;8315;52.104;6.304;2023-02-01T06:50:46;7.00;98.40
16412;DHT22;8315;52.104;6.304;2023-02-01T06:53:13;7.00;98.40
16412;DHT22;8315;52.104;6.304;2023-02-01T06:55:39;7.10;98.40
16412;DHT22;8315;52.104;6.304;2023-02-01T06:58:06;7.00;98.40
16412;DHT22;8315;52.104;6.304;2023-02-01T07:00:34;7.10;98.40
16412;DHT22;8315;52.104;6.304;2023-02-01T07:03:01;7.00;98.40
16412;DHT22;8315;52.104;6.304;2023-02-01T07:05:28;7.00;98.40
16412;DHT22;8315;52.104;6.304;2023-02-01T07:07:55;7.00;98.40
16412;DHT22;8315;52.104;6.304;2023-02-01T07:10:22;7.00;98.40
16412;DHT22;8315;52.104;6.304;2023-02-01T07:12:49;7.00;98.40
16412;DHT22;8315;52.104;6.304;2023-02-01T07:15:15;7.00;98.40
16412;DHT22;8315;52.104;6.304;2023-02-01T07:17:44;7.00;98.40
16412;DHT22;8315;52.104;6.304;2023-02-01T07:20:12;7.00;98.40
16412;DHT22;8315;52.104;6.304;2023-02-01T07:22:39;7.00;98.40
16412;DHT22;8315;52.104;6.304;2023-02-01T07:25:06;6.90;98.40
16412;DHT22;8315;52.104;6.304;2023-02-01T07:27:33;6.90;98.40
16412;DHT22;8315;52.104;6.304;2023-02-01T07:30:00;7.00;98.40
16412;DHT22;8315;52.104;6.304;2023-02-01T07:32:28;6.90;98.40
16412;DHT22;8315;52.104;6.304;2023-02-01T07:34:57;6.90;98.40
16412;DHT22;8315;52.104;6.304;2023-02-01T07:37:23;6.90;98.40
16412;DHT22;8315;52.104;6.304;2023-02-01T07:39:50;6.90;98.40
16412;DHT22;8315;52.104;6.304;2023-02-01T07:42:17;6.90;98.40
16412;DHT22;8315;52.104;6.304;2023-02-01T07:44:44;7.00;98.40
16412;DHT22;8315;52.104;6.304;2023-02-01T07:47:11;6.90;98.40
16412;DHT22;8315;52.104;6.304;2023-02-01T07:49:38;7.00;98.40
16412;DHT22;8315;52.104;6.304;2023-02-01T07:52:06;6.90;98.40
16412;DHT22;8315;52.104;6.304;2023-02-01T07:54:33;6.90;98.40
16412;DHT22;8315;52.104;6.304;2023-02-01T07:57:00;6.90;98.40
16412;DHT22;8315;52.104;6.304;2023-02-01T07:59:27;6.90;98.40
16412;DHT22;8315;52.104;6.304;2023-02-01T08:01:54;7.00;98.40
16412;DHT22;8315;52.104;6.304;2023-02-01T08:04:20;6.90;98.40
16412;DHT22;8315;52.104;6.304;2023-02-01T08:06:46;6.90;98.40
16412;DHT22;8315;52.104;6.304;2023-02-01T08:09:15;6.90;98.40
16412;DHT22;8315;52.104;6.304;2023-02-01T08:11:41;6.80;98.40
16412;DHT22;8315;52.104;6.304;2023-02-01T08:14:08;6.90;98.40
16412;DHT22;8315;52.104;6.304;2023-02-01T08:16:35;6.90;98.40
16412;DHT22;8315;52.104;6.304;2023-02-01T08:19:03;7.00;98.40
16412;DHT22;8315;52.104;6.304;2023-02-01T08:21:29;7.00;98.40
16412;DHT22;8315;52.104;6.304;2023-02-01T08:24:02;7.00;98.40
16412;DHT22;8315;52.104;6.304;2023-02-01T08:26:31;7.00;98.40
16412;DHT22;8315;52.104;6.304;2023-02-01T08:28:59;7.00;98.40
16412;DHT22;8315;52.104;6.304;2023-02-01T08:31:27;7.00;98.40
16412;DHT22;8315;52.104;6.304;2023-02-01T08:33:56;7.00;98.40
16412;DHT22;8315;52.104;6.304;2023-02-01T08:36:25;7.10;98.40
16412;DHT22;8315;52.104;6.304;2023-02-01T08:38:52;7.10;98.40
16412;DHT22;8315;52.104;6.304;2023-02-01T08:41:20;7.10;98.40
16412;DHT22;8315;52.104;6.304;2023-02-01T08:43:49;7.30;98.40
16412;DHT22;8315;52.104;6.304;2023-02-01T08:46:17;7.30;98.40
16412;DHT22;8315;52.104;6.304;2023-02-01T08:48:45;7.30;98.40
16412;DHT22;8315;52.104;6.304;2023-02-01T08:51:13;7.30;98.40
16412;DHT22;8315;52.104;6.304;2023-02-01T08:53:41;7.30;98.40
16412;DHT22;8315;52.104;6.304;2023-02-01T08:56:08;7.30;98.40
16412;DHT22;8315;52.104;6.304;2023-02-01T08:58:36;7.30;98.40
16412;DHT22;8315;52.104;6.304;2023-02-01T09:01:05;7.40;98.40
16412;DHT22;8315;52.104;6.304;2023-02-01T09:03:32;7.40;98.40
16412;DHT22;8315;52.104;6.304;2023-02-01T09:06:00;7.40;98.40
16412;DHT22;8315;52.104;6.304;2023-02-01T09:08:27;7.40;98.40
16412;DHT22;8315;52.104;6.304;2023-02-01T09:10:57;7.40;98.40
16412;DHT22;8315;52.104;6.304;2023-02-01T09:13:25;7.50;98.40
16412;DHT22;8315;52.104;6.304;2023-02-01T09:15:52;7.50;98.40
16412;DHT22;8315;52.104;6.304;2023-02-01T09:18:20;7.60;98.40
16412;DHT22;8315;52.104;6.304;2023-02-01T09:20:47;7.60;98.40
16412;DHT22;8315;52.104;6.304;2023-02-01T09:23:14;7.70;98.40
16412;DHT22;8315;52.104;6.304;2023-02-01T09:25:41;7.70;98.40
16412;DHT22;8315;52.104;6.304;2023-02-01T09:28:08;7.70;98.40
16412;DHT22;8315;52.104;6.304;2023-02-01T09:30:36;7.70;98.40
16412;DHT22;8315;52.104;6.304;2023-02-01T09:33:03;7.70;98.40
16412;DHT22;8315;52.104;6.304;2023-02-01T09:35:32;7.80;98.40
16412;DHT22;8315;52.104;6.304;2023-02-01T09:37:59;7.80;98.40
16412;DHT22;8315;52.104;6.304;2023-02-01T09:40:25;7.80;98.40
16412;DHT22;8315;52.104;6.304;2023-02-01T09:42:58;7.80;98.40
16412;DHT22;8315;52.104;6.304;2023-02-01T09:45:31;7.80;98.40
16412;DHT22;8315;52.104;6.304;2023-02-01T09:48:02;7.80;98.40
16412;DHT22;8315;52.104;6.304;2023-02-01T09:50:36;7.80;98.40
16412;DHT22;8315;52.104;6.304;2023-02-01T09:53:05;7.90;98.40
16412;DHT22;8315;52.104;6.304;2023-02-01T09:55:35;7.80;98.40
16412;DHT22;8315;52.104;6.304;2023-02-01T09:58:05;7.90;98.40
16412;DHT22;8315;52.104;6.304;2023-02-01T10:00:34;7.90;98.40
16412;DHT22;8315;52.104;6.304;2023-02-01T10:03:03;7.80;98.40
16412;DHT22;8315;52.104;6.304;2023-02-01T10:05:46;7.80;98.40
16412;DHT22;8315;52.104;6.304;2023-02-01T10:08:24;7.80;98.40
16412;DHT22;8315;52.104;6.304;2023-02-01T10:10:56;7.80;98.40
16412;DHT22;8315;52.104;6.304;2023-02-01T10:13:28;7.80;98.40
16412;DHT22;8315;52.104;6.304;2023-02-01T10:16:16;7.90;98.40
16412;DHT22;8315;52.104;6.304;2023-02-01T10:21:56;7.80;98.40
16412;DHT22;8315;52.104;6.304;2023-02-01T10:24:28;7.80;98.40
16412;DHT22;8315;52.104;6.304;2023-02-01T10:27:08;7.80;98.40
16412;DHT22;8315;52.104;6.304;2023-02-01T10:29:39;7.80;98.40
16412;DHT22;8315;52.104;6.304;2023-02-01T10:32:12;7.80;98.40
16412;DHT22;8315;52.104;6.304;2023-02-01T10:34:40;7.80;98.40
16412;DHT22;8315;52.104;6.304;2023-02-01T10:37:11;7.80;98.40
16412;DHT22;8315;52.104;6.304;2023-02-01T10:39:45;7.80;98.40
16412;DHT22;8315;52.104;6.304;2023-02-01T10:42:13;7.70;98.40
16412;DHT22;8315;52.104;6.304;2023-02-01T10:44:40;7.60;98.40
16412;DHT22;8315;52.104;6.304;2023-02-01T10:47:10;7.60;98.40
16412;DHT22;8315;52.104;6.304;2023-02-01T10:49:38;7.50;98.40
16412;DHT22;8315;52.104;6.304;2023-02-01T10:52:11;7.50;98.40
16412;DHT22;8315;52.104;6.304;2023-02-01T10:54:39;7.40;98.40
16412;DHT22;8315;52.104;6.304;2023-02-01T10:57:07;7.30;98.40
16412;DHT22;8315;52.104;6.304;2023-02-01T10:59:35;7.30;98.40
16412;DHT22;8315;52.104;6.304;2023-02-01T11:02:05;7.20;98.40
16412;DHT22;8315;52.104;6.304;2023-02-01T11:04:44;7.20;98.40
16412;DHT22;8315;52.104;6.304;2023-02-01T11:07:15;7.20;98.40
16412;DHT22;8315;52.104;6.304;2023-02-01T11:09:48;7.20;98.40
16412;DHT22;8315;52.104;6.304;2023-02-01T11:12:22;7.10;98.40
16412;DHT22;8315;52.104;6.304;2023-02-01T11:14:56;7.10;98.40
16412;DHT22;8315;52.104;6.304;2023-02-01T11:17:26;7.00;98.40
16412;DHT22;8315;52.104;6.304;2023-02-01T11:19:59;6.90;98.40
16412;DHT22;8315;52.104;6.304;2023-02-01T11:22:28;6.90;98.40
16412;DHT22;8315;52.104;6.304;2023-02-01T11:24:56;6.90;98.40
16412;DHT22;8315;52.104;6.304;2023-02-01T11:27:23;6.90;98.40
16412;DHT22;8315;52.104;6.304;2023-02-01T11:29:51;6.90;98.40
16412;DHT22;8315;52.104;6.304;2023-02-01T11:32:20;6.90;98.40
16412;DHT22;8315;52.104;6.304;2023-02-01T11:34:47;6.90;98.40
16412;DHT22;8315;52.104;6.304;2023-02-01T11:37:18;6.90;98.40
16412;DHT22;8315;52.104;6.304;2023-02-01T11:39:54;7.00;98.40
16412;DHT22;8315;52.104;6.304;2023-02-01T11:42:22;7.00;98.40
16412;DHT22;8315;52.104;6.304;2023-02-01T11:44:49;7.00;98.40
16412;DHT22;8315;52.104;6.304;2023-02-01T11:47:20;7.00;98.40
16412;DHT22;8315;52.104;6.304;2023-02-01T11:49:49;7.00;98.40
16412;DHT22;8315;52.104;6.304;2023-02-01T11:52:18;7.00;98.40
16412;DHT22;8315;52.104;6.304;2023-02-01T11:54:57;7.00;98.40
16412;DHT22;8315;52.104;6.304;2023-02-01T11:57:38;7.10;98.40
16412;DHT22;8315;52.104;6.304;2023-02-01T12:00:26;7.10;98.40
16412;DHT22;8315;52.104;6.304;2023-02-01T12:03:09;7.10;98.40
16412;DHT22;8315;52.104;6.304;2023-02-01T12:05:50;7.10;98.40
16412;DHT22;8315;52.104;6.304;2023-02-01T12:08:38;7.20;98.40
16412;DHT22;8315;52.104;6.304;2023-02-01T12:11:23;7.30;98.40
16412;DHT22;8315;52.104;6.304;2023-02-01T12:14:01;7.40;98.40
16412;DHT22;8315;52.104;6.304;2023-02-01T12:16:36;7.50;98.40
16412;DHT22;8315;52.104;6.304;2023-02-01T12:19:10;7.60;98.40
16412;DHT22;8315;52.104;6.304;2023-02-01T12:21:48;7.70;98.40
16412;DHT22;8315;52.104;6.304;2023-02-01T12:24:26;7.70;98.40
16412;DHT22;8315;52.104;6.304;2023-02-01T12:27:05;7.70;98.40
16412;DHT22;8315;52.104;6.304;2023-02-01T12:29:48;7.80;98.40
16412;DHT22;8315;52.104;6.304;2023-02-01T12:32:25;7.80;98.40
16412;DHT22;8315;52.104;6.304;2023-02-01T12:35:03;7.80;98.40
16412;DHT22;8315;52.104;6.304;2023-02-01T12:37:51;7.80;98.40
16412;DHT22;8315;52.104;6.304;2023-02-01T12:40:26;7.80;98.40
16412;DHT22;8315;52.104;6.304;2023-02-01T12:43:01;7.90;98.40
16412;DHT22;8315;52.104;6.304;2023-02-01T12:45:30;7.90;98.40
16412;DHT22;8315;52.104;6.304;2023-02-01T12:48:00;7.90;98.40
16412;DHT22;8315;52.104;6.304;2023-02-01T12:50:38;7.90;98.40
16412;DHT22;8315;52.104;6.304;2023-02-01T12:53:09;7.90;98.40
16412;DHT22;8315;52.104;6.304;2023-02-01T12:55:46;7.90;98.40
16412;DHT22;8315;52.104;6.304;2023-02-01T12:58:20;7.90;98.40
16412;DHT22;8315;52.104;6.304;2023-02-01T13:00:50;8.00;98.40
16412;DHT22;8315;52.104;6.304;2023-02-01T13:03:25;8.00;98.40
16412;DHT22;8315;52.104;6.304;2023-02-01T13:05:58;8.00;98.40
16412;DHT22;8315;52.104;6.304;2023-02-01T13:08:30;8.10;98.40
16412;DHT22;8315;52.104;6.304;2023-02-01T13:11:04;8.10;98.40
16412;DHT22;8315;52.104;6.304;2023-02-01T13:13:39;8.10;98.40
16412;DHT22;8315;52.104;6.304;2023-02-01T13:16:14;8.10;98.40
16412;DHT22;8315;52.104;6.304;2023-02-01T13:18:45;8.10;98.40
16412;DHT22;8315;52.104;6.304;2023-02-01T13:21:14;8.00;98.40
16412;DHT22;8315;52.104;6.304;2023-02-01T13:23:43;8.00;98.40
16412;DHT22;8315;52.104;6.304;2023-02-01T13:26:12;8.00;98.40
16412;DHT22;8315;52.104;6.304;2023-02-01T13:28:42;8.00;98.40
16412;DHT22;8315;52.104;6.304;2023-02-01T13:31:24;8.00;98.40
16412;DHT22;8315;52.104;6.304;2023-02-01T13:34:05;8.00;98.40
16412;DHT22;8315;52.104;6.304;2023-02-01T13:36:57;8.00;98.40
16412;DHT22;8315;52.104;6.304;2023-02-01T13:39:41;8.00;98.40
16412;DHT22;8315;52.104;6.304;2023-02-01T13:42:13;8.00;98.40
16412;DHT22;8315;52.104;6.304;2023-02-01T13:44:45;7.90;98.40
16412;DHT22;8315;52.104;6.304;2023-02-01T13:47:16;7.90;98.40
16412;DHT22;8315;52.104;6.304;2023-02-01T13:49:48;7.90;98.40
16412;DHT22;8315;52.104;6.304;2023-02-01T13:52:26;7.90;98.40
16412;DHT22;8315;52.104;6.304;2023-02-01T13:55:03;7.90;98.40
16412;DHT22;8315;52.104;6.304;2023-02-01T13:57:41;7.90;98.40
16412;DHT22;8315;52.104;6.304;2023-02-01T14:00:24;7.90;98.40
16412;DHT22;8315;52.104;6.304;2023-02-01T14:03:06;7.90;98.40
16412;DHT22;8315;52.104;6.304;2023-02-01T14:08:43;7.90;98.40
16412;DHT22;8315;52.104;6.304;2023-02-01T14:11:32;7.90;98.40
16412;DHT22;8315;52.104;6.304;2023-02-01T14:23:24;7.90;98.40
16412;DHT22;8315;52.104;6.304;2023-02-01T14:26:07;8.00;98.40
16412;DHT22;8315;52.104;6.304;2023-02-01T14:28:38;8.00;98.40
16412;DHT22;8315;52.104;6.304;2023-02-01T14:31:14;8.00;98.40
16412;DHT22;8315;52.104;6.304;2023-02-01T14:33:44;8.10;98.40
16412;DHT22;8315;52.104;6.304;2023-02-01T14:36:12;8.10;98.40
16412;DHT22;8315;52.104;6.304;2023-02-01T14:38:40;8.10;98.40
16412;DHT22;8315;52.104;6.304;2023-02-01T14:41:21;8.10;98.40
16412;DHT22;8315;52.104;6.304;2023-02-01T14:44:12;8.10;98.40
16412;DHT22;8315;52.104;6.304;2023-02-01T14:47:26;8.10;98.40
16412;DHT22;8315;52.104;6.304;2023-02-01T14:53:04;8.10;98.40
16412;DHT22;8315;52.104;6.304;2023-02-01T14:55:44;8.10;98.40
16412;DHT22;8315;52.104;6.304;2023-02-01T14:58:16;8.10;98.40
16412;DHT22;8315;52.104;6.304;2023-02-01T15:00:50;8.10;98.40
16412;DHT22;8315;52.104;6.304;2023-02-01T15:03:36;8.10;98.40
16412;DHT22;8315;52.104;6.304;2023-02-01T15:06:20;8.10;98.40
16412;DHT22;8315;52.104;6.304;2023-02-01T15:08:52;8.10;98.40
16412;DHT22;8315;52.104;6.304;2023-02-01T15:11:21;8.10;98.40
16412;DHT22;8315;52.104;6.304;2023-02-01T15:13:48;8.10;98.40
16412;DHT22;8315;52.104;6.304;2023-02-01T15:16:16;8.10;98.40
16412;DHT22;8315;52.104;6.304;2023-02-01T15:18:43;8.10;98.40
16412;DHT22;8315;52.104;6.304;2023-02-01T15:21:15;8.10;98.40
16412;DHT22;8315;52.104;6.304;2023-02-01T15:23:44;8.10;98.40
16412;DHT22;8315;52.104;6.304;2023-02-01T15:28:56;8.10;98.40
16412;DHT22;8315;52.104;6.304;2023-02-01T15:31:33;8.10;98.40
16412;DHT22;8315;52.104;6.304;2023-02-01T15:34:02;8.10;98.40
16412;DHT22;8315;52.104;6.304;2023-02-01T15:36:29;8.10;98.40
16412;DHT22;8315;52.104;6.304;2023-02-01T15:39:18;8.10;98.40
16412;DHT22;8315;52.104;6.304;2023-02-01T15:41:49;8.00;98.40
16412;DHT22;8315;52.104;6.304;2023-02-01T15:44:18;7.90;98.40
16412;DHT22;8315;52.104;6.304;2023-02-01T15:46:53;7.70;98.40
16412;DHT22;8315;52.104;6.304;2023-02-01T15:49:21;7.70;98.40
16412;DHT22;8315;52.104;6.304;2023-02-01T15:51:51;7.50;98.40
16412;DHT22;8315;52.104;6.304;2023-02-01T15:54:20;7.40;98.40
16412;DHT22;8315;52.104;6.304;2023-02-01T15:56:51;7.30;98.40
16412;DHT22;8315;52.104;6.304;2023-02-01T15:59:21;7.20;98.40
16412;DHT22;8315;52.104;6.304;2023-02-01T16:01:48;7.10;98.40
16412;DHT22;8315;52.104;6.304;2023-02-01T16:04:20;7.00;98.40
16412;DHT22;8315;52.104;6.304;2023-02-01T16:06:49;7.00;98.40
16412;DHT22;8315;52.104;6.304;2023-02-01T16:09:17;6.90;98.40
16412;DHT22;8315;52.104;6.304;2023-02-01T16:11:52;6.90;98.40
16412;DHT22;8315;52.104;6.304;2023-02-01T16:14:21;7.00;98.40
16412;DHT22;8315;52.104;6.304;2023-02-01T16:16:48;6.90;98.40
16412;DHT22;8315;52.104;6.304;2023-02-01T16:19:15;6.90;98.40
16412;DHT22;8315;52.104;6.304;2023-02-01T16:21:41;6.90;98.40
16412;DHT22;8315;52.104;6.304;2023-02-01T16:24:08;7.00;98.40
16412;DHT22;8315;52.104;6.304;2023-02-01T16:26:35;6.90;98.40
16412;DHT22;8315;52.104;6.304;2023-02-01T16:29:04;6.90;98.40
16412;DHT22;8315;52.104;6.304;2023-02-01T16:31:33;7.00;98.40
16412;DHT22;8315;52.104;6.304;2023-02-01T16:34:01;6.90;98.40
16412;DHT22;8315;52.104;6.304;2023-02-01T16:36:28;6.80;98.40
16412;DHT22;8315;52.104;6.304;2023-02-01T16:38:55;6.80;98.40
16412;DHT22;8315;52.104;6.304;2023-02-01T16:41:23;6.70;98.40
16412;DHT22;8315;52.104;6.304;2023-02-01T16:43:51;6.60;98.40
16412;DHT22;8315;52.104;6.304;2023-02-01T16:46:21;6.50;98.40
16412;DHT22;8315;52.104;6.304;2023-02-01T16:48:51;6.50;98.40
16412;DHT22;8315;52.104;6.304;2023-02-01T16:51:20;6.50;98.40